createdAt,value
2018-09-09T00:01:39.167Z,15.90
2018-09-09T00:04:07.386Z,15.90
2018-09-09T00:06:35.585Z,15.90
2018-09-09T00:09:04.035Z,15.90
2018-09-09T00:11:32.211Z,15.80
2018-09-09T00:14:00.390Z,15.80
2018-09-09T00:16:28.589Z,15.70
2018-09-09T00:18:56.799Z,15.70
2018-09-09T00:21:25.029Z,15.70
2018-09-09T00:23:53.314Z,15.70
2018-09-09T00:26:21.560Z,15.70
2018-09-09T00:28:49.789Z,15.60
2018-09-09T00:31:18.016Z,15.60
2018-09-09T00:33:46.255Z,15.50
2018-09-09T00:36:14.441Z,15.50
2018-09-09T00:38:42.725Z,15.40
2018-09-09T00:41:10.934Z,15.40
2018-09-09T00:43:39.159Z,15.40
2018-09-09T00:46:07.346Z,15.30
2018-09-09T00:48:35.602Z,15.30
2018-09-09T00:51:09.206Z,15.20
2018-09-09T00:53:43.318Z,15.20
2018-09-09T00:56:11.625Z,15.10
2018-09-09T00:58:39.838Z,15.00
2018-09-09T01:01:13.545Z,14.90
2018-09-09T01:03:41.775Z,14.90
2018-09-09T01:06:09.983Z,14.90
2018-09-09T01:08:38.575Z,14.90
2018-09-09T01:11:07.006Z,15.00
2018-09-09T01:13:35.255Z,14.90
2018-09-09T01:16:03.611Z,14.90
2018-09-09T01:18:31.999Z,14.90
2018-09-09T01:21:00.372Z,14.90
2018-09-09T01:23:28.659Z,14.90
2018-09-09T01:25:56.877Z,14.80
2018-09-09T01:28:25.096Z,14.80
2018-09-09T01:30:53.526Z,14.80
2018-09-09T01:33:21.800Z,14.70
2018-09-09T01:35:49.985Z,14.60
2018-09-09T01:38:18.226Z,14.60
2018-09-09T01:40:46.685Z,14.50
2018-09-09T01:43:14.908Z,14.50
2018-09-09T01:45:43.161Z,14.50
2018-09-09T01:48:11.380Z,14.50
2018-09-09T01:50:39.582Z,14.40
2018-09-09T01:53:07.779Z,14.40
2018-09-09T01:55:35.965Z,14.30
2018-09-09T01:58:04.157Z,14.30
2018-09-09T02:00:32.432Z,14.40
2018-09-09T02:03:00.629Z,14.40
2018-09-09T02:05:28.929Z,14.40
2018-09-09T02:07:57.175Z,14.40
2018-09-09T02:10:25.358Z,14.50
2018-09-09T02:12:53.573Z,14.50
2018-09-09T02:15:21.757Z,14.50
2018-09-09T02:17:50.080Z,14.50
2018-09-09T02:20:18.273Z,14.50
2018-09-09T02:22:46.481Z,14.50
2018-09-09T02:25:14.706Z,14.60
2018-09-09T02:27:42.925Z,14.60
2018-09-09T02:30:11.392Z,14.60
2018-09-09T02:32:39.577Z,14.60
2018-09-09T02:35:07.782Z,14.60
2018-09-09T02:37:36.026Z,14.60
2018-09-09T02:40:04.237Z,14.60
2018-09-09T02:42:32.514Z,14.50
2018-09-09T02:45:00.834Z,14.50
2018-09-09T02:47:32.233Z,14.40
2018-09-09T02:50:00.566Z,14.40
2018-09-09T02:52:28.889Z,14.40
2018-09-09T02:54:57.130Z,14.30
2018-09-09T02:57:25.341Z,14.30
2018-09-09T02:59:53.552Z,14.30
2018-09-09T03:02:21.788Z,14.30
2018-09-09T03:04:49.993Z,14.30
2018-09-09T03:07:18.219Z,14.30
2018-09-09T03:09:46.461Z,14.30
2018-09-09T03:12:14.685Z,14.30
2018-09-09T03:14:42.901Z,14.40
2018-09-09T03:17:11.109Z,14.40
2018-09-09T03:19:39.341Z,14.40
2018-09-09T03:22:07.557Z,14.40
2018-09-09T03:24:35.817Z,14.30
2018-09-09T03:27:04.108Z,14.30
2018-09-09T03:29:32.332Z,14.30
2018-09-09T03:32:00.562Z,14.30
2018-09-09T03:34:28.758Z,14.30
2018-09-09T03:36:57.017Z,14.20
2018-09-09T03:39:25.313Z,14.20
2018-09-09T03:41:53.510Z,14.10
2018-09-09T03:44:21.742Z,14.10
2018-09-09T03:46:49.967Z,13.90
2018-09-09T03:49:18.206Z,13.80
2018-09-09T03:51:46.413Z,13.60
2018-09-09T03:54:14.674Z,13.50
2018-09-09T03:56:42.966Z,13.50
2018-09-09T03:59:11.187Z,13.50
2018-09-09T04:01:39.389Z,13.50
2018-09-09T04:04:07.664Z,13.50
2018-09-09T04:06:35.901Z,13.60
2018-09-09T04:09:08.321Z,13.60
2018-09-09T04:11:36.592Z,13.70
2018-09-09T04:14:04.822Z,13.70
2018-09-09T04:16:33.043Z,13.60
2018-09-09T04:19:01.307Z,13.60
2018-09-09T04:21:29.508Z,13.60
2018-09-09T04:23:57.735Z,13.60
2018-09-09T04:26:25.957Z,13.60
2018-09-09T04:28:54.205Z,13.60
2018-09-09T04:31:22.437Z,13.50
2018-09-09T04:33:50.673Z,13.40
2018-09-09T04:36:18.889Z,13.30
2018-09-09T04:38:47.149Z,13.20
2018-09-09T04:41:15.421Z,13.20
2018-09-09T04:43:43.648Z,13.20
2018-09-09T04:46:11.899Z,13.20
2018-09-09T04:48:40.113Z,13.20
2018-09-09T04:51:08.541Z,13.20
2018-09-09T04:53:36.774Z,13.10
2018-09-09T04:56:05.018Z,13.10
2018-09-09T04:58:33.241Z,13.10
2018-09-09T05:01:01.534Z,13.20
2018-09-09T05:03:29.847Z,13.30
2018-09-09T05:05:58.157Z,13.40
2018-09-09T05:08:26.402Z,13.50
2018-09-09T05:10:54.610Z,13.60
2018-09-09T05:13:22.878Z,13.60
2018-09-09T05:15:51.078Z,13.70
2018-09-09T05:18:19.402Z,13.80
2018-09-09T05:23:22.337Z,13.90
2018-09-09T05:25:50.592Z,13.90
2018-09-09T05:28:18.828Z,13.90
2018-09-09T05:30:47.054Z,13.90
2018-09-09T05:33:15.236Z,13.80
2018-09-09T05:35:43.527Z,13.80
2018-09-09T05:38:11.725Z,13.70
2018-09-09T05:40:40.082Z,13.70
2018-09-09T05:43:08.307Z,13.80
2018-09-09T05:45:36.603Z,13.90
2018-09-09T05:48:04.834Z,13.90
2018-09-09T05:50:33.082Z,14.00
2018-09-09T05:53:01.341Z,14.00
2018-09-09T05:55:29.616Z,14.10
2018-09-09T05:57:57.842Z,14.20
2018-09-09T06:00:26.070Z,14.30
2018-09-09T06:02:54.247Z,14.40
2018-09-09T06:05:22.546Z,14.50
2018-09-09T06:07:50.925Z,14.60
2018-09-09T06:10:19.170Z,14.70
2018-09-09T06:12:47.361Z,14.90
2018-09-09T06:15:15.666Z,15.00
2018-09-09T06:17:43.889Z,15.20
2018-09-09T06:20:12.162Z,15.30
2018-09-09T06:22:40.383Z,15.50
2018-09-09T06:25:08.618Z,15.70
2018-09-09T06:27:36.860Z,15.90
2018-09-09T06:30:05.262Z,16.10
2018-09-09T06:32:33.532Z,16.40
2018-09-09T06:35:01.744Z,16.70
2018-09-09T06:37:30.122Z,17.00
2018-09-09T06:39:58.347Z,17.20
2018-09-09T06:42:26.556Z,17.40
2018-09-09T06:44:54.792Z,17.70
2018-09-09T06:47:23.031Z,18.00
2018-09-09T06:49:51.278Z,18.20
2018-09-09T06:52:19.457Z,18.50
2018-09-09T06:54:47.659Z,18.90
2018-09-09T06:57:15.894Z,19.00
2018-09-09T06:59:44.109Z,19.30
2018-09-09T07:02:12.407Z,19.40
2018-09-09T07:04:40.553Z,19.30
2018-09-09T07:07:08.801Z,19.30
2018-09-09T07:09:37.179Z,19.40
2018-09-09T07:12:05.485Z,19.60
2018-09-09T07:14:33.605Z,19.70
2018-09-09T07:17:01.822Z,20.00
2018-09-09T07:19:30.058Z,20.40
2018-09-09T07:21:58.249Z,20.70
2018-09-09T07:24:26.734Z,20.70
2018-09-09T07:26:54.980Z,20.90
2018-09-09T07:29:23.185Z,21.10
2018-09-09T07:31:52.125Z,21.50
2018-09-09T07:34:20.416Z,21.70
2018-09-09T07:36:48.573Z,21.90
2018-09-09T07:39:16.778Z,22.00
2018-09-09T07:41:45.028Z,22.20
2018-09-09T07:44:13.320Z,22.40
2018-09-09T07:46:41.534Z,22.70
2018-09-09T07:49:09.821Z,23.00
2018-09-09T07:51:38.086Z,22.90
2018-09-09T07:54:06.568Z,22.90
2018-09-09T07:56:34.884Z,22.80
2018-09-09T07:59:03.183Z,22.80
2018-09-09T08:01:32.391Z,22.80
2018-09-09T08:04:00.592Z,23.10
2018-09-09T08:06:28.837Z,23.20
2018-09-09T08:08:57.079Z,23.40
2018-09-09T08:11:29.529Z,23.60
2018-09-09T08:13:57.767Z,23.60
2018-09-09T08:16:25.994Z,23.90
2018-09-09T08:18:54.327Z,24.10
2018-09-09T08:21:22.618Z,24.40
2018-09-09T08:23:51.306Z,24.30
2018-09-09T08:26:19.553Z,24.00
2018-09-09T08:28:47.850Z,24.30
2018-09-09T08:31:16.125Z,24.70
2018-09-09T08:33:44.410Z,24.70
2018-09-09T08:36:12.981Z,24.70
2018-09-09T08:38:41.233Z,24.80
2018-09-09T08:41:09.741Z,25.20
2018-09-09T08:43:37.969Z,25.30
2018-09-09T08:46:06.367Z,25.30
2018-09-09T08:48:34.941Z,25.30
2018-09-09T08:51:03.346Z,25.40
2018-09-09T08:53:31.865Z,25.50
2018-09-09T08:56:00.113Z,25.60
2018-09-09T08:58:28.442Z,25.50
2018-09-09T09:00:56.720Z,25.50
2018-09-09T09:03:24.925Z,25.80
2018-09-09T09:05:53.402Z,25.70
2018-09-09T09:08:21.624Z,25.80
2018-09-09T09:10:49.862Z,25.60
2018-09-09T09:13:18.085Z,25.70
2018-09-09T09:15:46.309Z,25.80
2018-09-09T09:18:14.535Z,25.90
2018-09-09T09:20:42.906Z,25.80
2018-09-09T09:23:11.418Z,25.80
2018-09-09T09:25:44.633Z,25.70
2018-09-09T09:28:12.878Z,25.80
2018-09-09T09:30:41.213Z,26.10
2018-09-09T09:33:09.365Z,26.30
2018-09-09T09:35:43.948Z,26.40
2018-09-09T09:38:12.202Z,26.60
2018-09-09T09:40:40.433Z,26.80
2018-09-09T09:43:08.815Z,26.80
2018-09-09T09:45:37.094Z,26.80
2018-09-09T09:48:05.380Z,26.90
2018-09-09T09:50:33.911Z,27.00
2018-09-09T09:53:02.160Z,27.00
2018-09-09T09:55:30.448Z,26.70
2018-09-09T09:57:59.236Z,26.70
2018-09-09T10:00:32.905Z,27.00
2018-09-09T10:03:01.293Z,27.10
2018-09-09T10:05:29.611Z,27.30
2018-09-09T10:07:57.910Z,27.50
2018-09-09T10:10:26.164Z,27.50
2018-09-09T10:12:54.399Z,27.60
2018-09-09T10:15:22.607Z,27.60
2018-09-09T10:17:50.897Z,27.70
2018-09-09T10:20:19.098Z,27.60
2018-09-09T10:22:47.364Z,27.70
2018-09-09T10:25:15.658Z,27.60
2018-09-09T10:27:44.000Z,27.40
2018-09-09T10:30:12.291Z,27.40
2018-09-09T10:32:40.470Z,27.40
2018-09-09T10:35:08.666Z,27.10
2018-09-09T10:37:36.899Z,27.00
2018-09-09T10:40:05.170Z,26.70
2018-09-09T10:42:33.493Z,26.80
2018-09-09T10:45:01.690Z,26.60
2018-09-09T10:47:29.904Z,26.80
2018-09-09T10:49:58.130Z,26.70
2018-09-09T10:52:26.397Z,26.60
2018-09-09T10:54:54.599Z,26.40
2018-09-09T10:57:22.829Z,26.30
2018-09-09T10:59:51.033Z,26.40
2018-09-09T11:02:19.277Z,26.30
2018-09-09T11:04:47.490Z,26.20
2018-09-09T11:07:15.713Z,26.10
2018-09-09T11:09:43.917Z,26.20
2018-09-09T11:12:12.179Z,26.10
2018-09-09T11:14:40.458Z,26.10
2018-09-09T11:17:08.642Z,26.00
2018-09-09T11:19:37.237Z,25.90
2018-09-09T11:22:05.518Z,25.90
2018-09-09T11:24:33.823Z,25.90
2018-09-09T11:27:02.037Z,25.80
2018-09-09T11:29:30.233Z,25.80
2018-09-09T11:31:58.586Z,25.80
2018-09-09T11:34:26.767Z,25.70
2018-09-09T11:36:54.998Z,25.60
2018-09-09T11:39:23.244Z,25.50
2018-09-09T11:41:51.481Z,25.40
2018-09-09T11:44:19.685Z,25.30
2018-09-09T11:46:47.932Z,25.20
2018-09-09T11:49:16.265Z,25.20
2018-09-09T11:51:44.586Z,25.00
2018-09-09T11:54:12.810Z,25.00
2018-09-09T11:56:41.078Z,25.00
2018-09-09T11:59:09.287Z,25.00
2018-09-09T12:01:37.534Z,25.10
2018-09-09T12:04:05.839Z,25.20
2018-09-09T12:06:34.065Z,25.20
2018-09-09T12:09:02.247Z,25.00
2018-09-09T12:11:30.494Z,25.00
2018-09-09T12:13:58.725Z,24.90
2018-09-09T12:16:27.079Z,24.90
2018-09-09T12:18:55.298Z,25.00
2018-09-09T12:21:23.529Z,25.00
2018-09-09T12:23:51.781Z,25.00
2018-09-09T12:26:19.997Z,25.00
2018-09-09T12:28:48.355Z,25.00
2018-09-09T12:31:16.594Z,25.00
2018-09-09T12:33:44.780Z,25.10
2018-09-09T12:36:13.020Z,25.10
2018-09-09T12:38:41.231Z,25.10
2018-09-09T12:41:09.492Z,25.10
2018-09-09T12:43:43.041Z,25.10
2018-09-09T12:46:16.773Z,25.10
2018-09-09T12:48:50.122Z,25.10
2018-09-09T12:51:18.464Z,25.20
2018-09-09T12:53:46.697Z,25.20
2018-09-09T12:56:14.907Z,25.20
2018-09-09T12:58:43.152Z,25.10
2018-09-09T13:01:11.392Z,25.10
2018-09-09T13:03:39.582Z,25.10
2018-09-09T13:06:07.795Z,25.10
2018-09-09T13:08:35.998Z,24.60
2018-09-09T13:11:04.213Z,24.40
2018-09-09T13:13:32.470Z,24.50
2018-09-09T13:16:00.655Z,24.70
2018-09-09T13:18:28.877Z,24.70
2018-09-09T13:20:57.137Z,24.80
2018-09-09T13:23:25.367Z,24.80
2018-09-09T13:25:53.598Z,24.80
2018-09-09T13:28:22.947Z,24.90
2018-09-09T13:30:51.834Z,24.90
2018-09-09T13:33:21.073Z,24.70
2018-09-09T13:35:49.356Z,24.80
2018-09-09T13:38:17.579Z,24.80
2018-09-09T13:40:45.795Z,24.70
2018-09-09T13:43:13.984Z,24.70
2018-09-09T13:45:42.251Z,24.60
2018-09-09T13:48:10.570Z,24.60
2018-09-09T13:50:38.741Z,24.70
2018-09-09T13:53:07.165Z,24.80
2018-09-09T13:55:35.388Z,24.80
2018-09-09T13:58:03.613Z,24.70
2018-09-09T14:00:31.823Z,24.70
2018-09-09T14:03:00.051Z,24.70
2018-09-09T14:05:28.292Z,24.70
2018-09-09T14:07:56.499Z,24.60
2018-09-09T14:10:24.698Z,24.60
2018-09-09T14:12:52.970Z,24.50
2018-09-09T14:15:21.325Z,24.60
2018-09-09T14:17:49.521Z,24.60
2018-09-09T14:20:17.778Z,24.60
2018-09-09T14:22:46.066Z,24.70
2018-09-09T14:25:14.248Z,24.70
2018-09-09T14:27:42.476Z,24.70
2018-09-09T14:30:10.678Z,24.70
2018-09-09T14:32:38.918Z,24.70
2018-09-09T14:35:07.246Z,24.80
2018-09-09T14:37:35.441Z,24.80
2018-09-09T14:40:03.653Z,24.90
2018-09-09T14:42:31.897Z,24.90
2018-09-09T14:45:01.029Z,24.90
2018-09-09T14:47:29.284Z,24.90
2018-09-09T14:49:57.469Z,24.90
2018-09-09T14:52:25.842Z,24.80
2018-09-09T14:54:54.034Z,24.80
2018-09-09T14:57:22.228Z,24.70
2018-09-09T14:59:50.429Z,24.70
2018-09-09T15:02:18.657Z,24.70
2018-09-09T15:04:46.887Z,24.70
2018-09-09T15:07:15.212Z,24.60
2018-09-09T15:09:43.543Z,24.70
2018-09-09T15:12:11.769Z,24.70
2018-09-09T15:14:40.020Z,24.60
2018-09-09T15:17:08.238Z,24.60
2018-09-09T15:19:38.012Z,24.60
2018-09-09T15:22:06.282Z,24.60
2018-09-09T15:24:34.505Z,24.60
2018-09-09T15:27:02.685Z,24.50
2018-09-09T15:29:31.113Z,24.60
2018-09-09T15:31:59.402Z,24.60
2018-09-09T15:34:27.713Z,24.40
2018-09-09T15:36:55.910Z,24.30
2018-09-09T15:39:24.162Z,24.30
2018-09-09T15:41:52.462Z,24.20
2018-09-09T15:44:20.660Z,24.20
2018-09-09T15:46:48.947Z,24.20
2018-09-09T15:49:17.173Z,24.20
2018-09-09T15:51:45.397Z,24.20
2018-09-09T15:54:13.634Z,24.10
2018-09-09T15:56:41.845Z,24.10
2018-09-09T15:59:10.066Z,24.10
2018-09-09T16:01:38.305Z,24.00
2018-09-09T16:04:06.533Z,23.90
2018-09-09T16:06:34.747Z,23.90
2018-09-09T16:09:03.043Z,23.90
2018-09-09T16:11:31.309Z,23.90
2018-09-09T16:13:59.568Z,23.90
2018-09-09T16:16:27.785Z,23.90
2018-09-09T16:18:56.029Z,23.90
2018-09-09T16:21:24.212Z,23.80
2018-09-09T16:23:53.944Z,23.80
2018-09-09T16:26:22.234Z,23.70
2018-09-09T16:28:50.530Z,23.60
2018-09-09T16:31:18.882Z,23.60
2018-09-09T16:33:47.150Z,23.60
2018-09-09T16:36:15.460Z,23.50
2018-09-09T16:38:43.745Z,23.50
2018-09-09T16:41:12.100Z,23.50
2018-09-09T16:43:40.497Z,23.50
2018-09-09T16:46:08.714Z,23.40
2018-09-09T16:48:37.293Z,23.40
2018-09-09T16:51:05.722Z,23.40
2018-09-09T16:53:33.957Z,23.40
2018-09-09T16:56:02.217Z,23.30
2018-09-09T16:58:30.453Z,23.30
2018-09-09T17:00:58.705Z,23.30
2018-09-09T17:03:27.106Z,23.20
2018-09-09T17:05:55.375Z,23.20
2018-09-09T17:08:23.734Z,23.20
2018-09-09T17:10:52.018Z,23.10
2018-09-09T17:13:20.335Z,23.10
2018-09-09T17:15:48.557Z,23.10
2018-09-09T17:18:16.879Z,23.10
2018-09-09T17:20:45.109Z,23.00
2018-09-09T17:23:14.119Z,23.00
2018-09-09T17:25:42.395Z,22.90
2018-09-09T17:28:10.737Z,22.80
2018-09-09T17:30:38.914Z,22.80
2018-09-09T17:33:07.809Z,22.80
2018-09-09T17:35:36.054Z,22.70
2018-09-09T17:38:04.287Z,22.70
2018-09-09T17:40:32.531Z,22.70
2018-09-09T17:43:01.080Z,22.70
2018-09-09T17:45:29.301Z,22.60
2018-09-09T17:47:57.540Z,22.60
2018-09-09T17:50:25.817Z,22.50
2018-09-09T17:52:54.153Z,22.40
2018-09-09T17:55:22.369Z,22.40
2018-09-09T17:57:50.578Z,22.30
2018-09-09T18:00:18.858Z,22.20
2018-09-09T18:02:47.202Z,22.10
2018-09-09T18:05:15.680Z,22.10
2018-09-09T18:07:43.916Z,22.00
2018-09-09T18:10:12.209Z,22.00
2018-09-09T18:12:40.429Z,21.90
2018-09-09T18:15:08.689Z,21.80
2018-09-09T18:17:37.042Z,21.70
2018-09-09T18:20:05.399Z,21.60
2018-09-09T18:22:34.750Z,21.40
2018-09-09T18:25:02.979Z,21.30
2018-09-09T18:27:31.202Z,21.30
2018-09-09T18:29:59.522Z,21.20
2018-09-09T18:32:27.770Z,21.20
2018-09-09T18:34:56.186Z,21.10
2018-09-09T18:37:24.398Z,21.10
2018-09-09T18:39:52.680Z,21.00
2018-09-09T18:42:21.027Z,20.90
2018-09-09T18:44:49.327Z,20.90
2018-09-09T18:47:17.809Z,20.90
2018-09-09T18:49:46.103Z,20.90
2018-09-09T18:52:14.357Z,20.70
2018-09-09T18:54:42.665Z,20.70
2018-09-09T18:57:10.932Z,20.60
2018-09-09T18:59:39.326Z,20.40
2018-09-09T19:02:07.587Z,20.20
2018-09-09T19:04:35.804Z,20.10
2018-09-09T19:07:04.196Z,20.00
2018-09-09T19:09:32.462Z,19.90
2018-09-09T19:12:00.739Z,19.80
2018-09-09T19:14:29.003Z,19.70
2018-09-09T19:16:57.280Z,19.60
2018-09-09T19:19:25.553Z,19.70
2018-09-09T19:21:53.916Z,19.70
2018-09-09T19:24:22.121Z,19.70
2018-09-09T19:26:50.450Z,19.60
2018-09-09T19:29:18.703Z,19.60
2018-09-09T19:31:46.948Z,19.60
2018-09-09T19:34:15.266Z,19.60
2018-09-09T19:36:43.874Z,19.60
2018-09-09T19:39:12.454Z,19.60
2018-09-09T19:41:40.968Z,19.50
2018-09-09T19:44:09.276Z,19.50
2018-09-09T19:46:37.508Z,19.40
2018-09-09T19:49:06.486Z,19.40
2018-09-09T19:51:35.074Z,19.30
2018-09-09T19:54:03.360Z,19.30
2018-09-09T19:56:31.608Z,19.30
2018-09-09T19:58:59.899Z,19.30
2018-09-09T20:01:30.762Z,19.30
2018-09-09T20:03:58.973Z,19.30
2018-09-09T20:06:27.261Z,19.30
2018-09-09T20:08:55.589Z,19.20
2018-09-09T20:11:23.979Z,19.10
2018-09-09T20:13:52.197Z,19.00
2018-09-09T20:16:20.496Z,19.00
2018-09-09T20:18:48.727Z,18.90
2018-09-09T20:21:16.955Z,18.80
2018-09-09T20:23:45.610Z,18.70
2018-09-09T20:26:13.872Z,18.70
2018-09-09T20:28:42.129Z,18.60
2018-09-09T20:31:10.401Z,18.60
2018-09-09T20:33:38.818Z,18.60
2018-09-09T20:36:07.321Z,18.60
2018-09-09T20:38:35.988Z,18.50
2018-09-09T20:41:04.257Z,18.40
2018-09-09T20:43:32.740Z,18.40
2018-09-09T20:46:01.095Z,18.40
2018-09-09T20:48:29.414Z,18.30
2018-09-09T20:50:57.659Z,18.30
2018-09-09T20:53:25.859Z,18.30
2018-09-09T20:55:54.285Z,18.30
2018-09-09T20:58:22.534Z,18.30
2018-09-09T21:00:50.890Z,18.30
2018-09-09T21:03:19.239Z,18.30
2018-09-09T21:05:47.669Z,18.30
2018-09-09T21:08:15.925Z,18.10
2018-09-09T21:10:44.172Z,18.10
2018-09-09T21:13:12.417Z,18.00
2018-09-09T21:15:40.797Z,18.00
2018-09-09T21:18:09.219Z,18.00
2018-09-09T21:20:37.508Z,18.00
2018-09-09T21:23:05.981Z,17.90
2018-09-09T21:25:34.317Z,18.00
2018-09-09T21:28:03.345Z,18.00
2018-09-09T21:30:31.636Z,18.00
2018-09-09T21:32:59.926Z,18.00
2018-09-09T21:35:28.311Z,17.90
2018-09-09T21:37:56.693Z,17.80
2018-09-09T21:40:25.041Z,17.70
2018-09-09T21:42:53.330Z,17.60
2018-09-09T21:45:21.638Z,17.60
2018-09-09T21:47:49.886Z,17.60
2018-09-09T21:50:18.237Z,17.50
2018-09-09T21:52:46.633Z,17.50
2018-09-09T21:55:15.322Z,17.40
2018-09-09T21:57:43.573Z,17.30
2018-09-09T22:00:12.841Z,17.30
2018-09-09T22:02:42.030Z,17.20
2018-09-09T22:05:10.322Z,17.20
2018-09-09T22:07:38.733Z,17.20
2018-09-09T22:10:07.017Z,17.10
2018-09-09T22:12:35.292Z,17.00
2018-09-09T22:15:03.570Z,17.00
2018-09-09T22:17:31.875Z,16.90
2018-09-09T22:20:00.382Z,16.90
2018-09-09T22:22:28.597Z,16.80
2018-09-09T22:24:56.925Z,16.70
2018-09-09T22:27:25.471Z,16.70
2018-09-09T22:29:53.854Z,16.70
2018-09-09T22:32:22.077Z,16.70
2018-09-09T22:34:50.328Z,16.70
2018-09-09T22:37:18.562Z,16.70
2018-09-09T22:39:46.818Z,16.70
2018-09-09T22:42:15.098Z,16.70
2018-09-09T22:44:43.373Z,16.60
2018-09-09T22:47:11.577Z,16.50
2018-09-09T22:49:39.934Z,16.40
2018-09-09T22:52:08.199Z,16.40
2018-09-09T22:54:36.424Z,16.40
2018-09-09T22:57:04.742Z,16.40
2018-09-09T22:59:33.000Z,16.40
2018-09-09T23:02:01.235Z,16.30
2018-09-09T23:04:29.425Z,16.30
2018-09-09T23:06:57.665Z,16.20
2018-09-09T23:09:25.909Z,16.30
2018-09-09T23:11:54.153Z,16.30
2018-09-09T23:14:28.950Z,16.20
2018-09-09T23:16:57.295Z,16.20
2018-09-09T23:19:25.525Z,16.20
2018-09-09T23:21:53.757Z,16.10
2018-09-09T23:24:21.963Z,16.00
2018-09-09T23:26:50.209Z,16.00
2018-09-09T23:29:18.454Z,15.90
2018-09-09T23:31:46.726Z,15.90
2018-09-09T23:34:14.962Z,15.80
2018-09-09T23:36:43.193Z,15.70
2018-09-09T23:39:12.145Z,15.70
2018-09-09T23:41:40.429Z,15.60
2018-09-09T23:44:10.269Z,15.60
2018-09-09T23:46:38.509Z,15.50
2018-09-09T23:49:06.915Z,15.50
2018-09-09T23:51:35.133Z,15.50
2018-09-09T23:54:03.326Z,15.50
2018-09-09T23:56:31.594Z,15.50
2018-09-09T23:58:59.846Z,15.40
